Search for airport 
image banner adimage banner adimage banner ad
image banner ad

23CN - Douthitt Strip

Located in El Centro, United States

ICAO - 23CN, IATA -

Data provided by Airmate  

General information

Coordinates: N32°47'20" W115°31'47"
Elevation is 45 feet MSL.
Magnetic variation is 13° East
View others Airports in California

Operational data

Special qualification required
Current time UTC:
Current local time:
Weather at : KIPL - Imperial County ( 7 km )
METAR: KIPL 240853Z AUTO 16007KT 9SM CLR 31/16 A2980 RMK AO2 SLP091 T03060161 58002
TAF: KIPL 240520Z 2406/2506 VRB04KT P6SM FEW110 FM241200 16004KT P6SM SKC FM241800 22004KT P6SM SKC FM242300 25012G20KT P6SM SKC FM250200 26016G26KT P6SM SKC FM250500 25010G18KT P6SM SKC
View NOTAMs / SUP AIP / TFR affecting this airport [VIEW]
Communications frequencies: [VIEW]

Runways:

RWY identifierQFULength (ft)Width (ft)SurfaceLDA (ft)
041800100EARTH
221800100EARTH
081400100EARTH
261400100EARTH

Airport contact information

Address: El Centro United States

Satellite view of 23CN